Terminal Aerodrome Forecast
Issued by NWS

Home | Current Version | Previous Version | Text Only | Print | Product List | Glossary Off
Versions: 1 2 3 4 5 6 7 8 9 10 11 12 13 14 15 16 17 18

000
FTUS43 KICT 262334
TAFRSL
TAF
KRSL 262334Z 2700/2724 08015KT P6SM OVC015
     FM270300 05012KT P6SM SCT015 OVC025
     FM270600 05012KT P6SM SCT035
     FM271400 05012G24KT P6SM BKN150=

USA.gov is the U.S. government's official web portal to all federal, state and local government web resources and services.